Time,TemperatureF,DewpointF,PressureIn,WindDirection,WindDirectionDegrees,WindSpeedMPH,WindSpeedGustMPH,Humidity,HourlyPrecipIn,Conditions,Clouds,dailyrainin,SoftwareType,DateUTC
2013-08-26 00:04:00,74.0,70.0,29.94,North,349,1.0,2.0,86,0.02,,,0.00,Meteo,2013-08-26 05:04:00,
2013-08-26 00:09:00,73.0,70.0,29.94,NE,40,2.0,4.0,90,0.02,,,0.00,Meteo,2013-08-26 05:09:00,
2013-08-26 00:14:00,72.0,69.0,29.93,NNW,332,1.0,3.0,90,0.03,,,0.00,Meteo,2013-08-26 05:14:00,
2013-08-26 00:19:00,72.0,70.0,29.93,East,84,0.0,2.0,92,0.03,,,0.00,Meteo,2013-08-26 05:19:00,
2013-08-26 00:24:00,72.0,70.0,29.92,East,88,0.0,1.0,92,0.03,,,0.00,Meteo,2013-08-26 05:24:00,
2013-08-26 00:29:00,72.0,70.0,29.92,East,87,2.0,3.0,93,0.04,,,0.00,Meteo,2013-08-26 05:29:00,
2013-08-26 00:34:00,72.0,70.0,29.92,East,96,2.0,3.0,93,0.04,,,0.00,Meteo,2013-08-26 05:34:00,
2013-08-26 00:39:00,72.0,70.0,29.91,East,88,3.0,5.0,93,0.04,,,0.00,Meteo,2013-08-26 05:39:00,
2013-08-26 00:44:00,72.0,70.0,29.91,East,87,1.0,2.0,93,0.04,,,0.00,Meteo,2013-08-26 05:44:00,
2013-08-26 00:49:00,72.0,70.0,29.92,North,0,0.0,0.0,93,0.05,,,0.00,Meteo,2013-08-26 05:49:00,
2013-08-26 00:54:00,72.0,70.0,29.91,East,87,2.0,3.0,93,0.04,,,0.00,Meteo,2013-08-26 05:54:00,
2013-08-26 00:59:00,71.0,69.0,29.92,East,87,1.0,1.0,93,0.04,,,0.00,Meteo,2013-08-26 05:59:00,
2013-08-26 01:04:00,71.0,69.0,29.92,East,87,0.0,2.0,93,0.04,,,0.01,Meteo,2013-08-26 06:04:00,
2013-08-26 01:10:00,71.0,69.0,29.93,North,0,0.0,0.0,94,0.04,,,0.01,Meteo,2013-08-26 06:10:00,
2013-08-26 01:15:00,71.0,69.0,29.91,East,89,1.0,2.0,95,0.03,,,0.01,Meteo,2013-08-26 06:15:00,
2013-08-26 01:20:00,71.0,69.0,29.93,West,270,2.0,7.0,94,0.03,,,0.01,Meteo,2013-08-26 06:20:00,
2013-08-26 01:25:00,72.0,70.0,29.93,ENE,61,2.0,8.0,95,0.03,,,0.01,Meteo,2013-08-26 06:25:00,
2013-08-26 01:30:00,72.0,71.0,29.94,North,352,4.0,7.0,96,0.03,,,0.02,Meteo,2013-08-26 06:30:00,
2013-08-26 01:35:00,71.0,70.0,29.93,NNW,334,2.0,5.0,97,0.03,,,0.02,Meteo,2013-08-26 06:35:00,
2013-08-26 01:40:00,71.0,70.0,29.91,NW,325,3.0,5.0,97,0.03,,,0.02,Meteo,2013-08-26 06:40:00,
2013-08-26 01:45:00,71.0,70.0,29.92,SW,221,0.0,1.0,97,0.04,,,0.03,Meteo,2013-08-26 06:45:00,
2013-08-26 01:50:00,71.0,70.0,29.94,SW,219,0.0,1.0,97,0.03,,,0.03,Meteo,2013-08-26 06:50:00,
2013-08-26 01:55:00,71.0,70.0,29.99,NNW,330,6.0,8.0,97,0.03,,,0.03,Meteo,2013-08-26 06:55:00,
2013-08-26 02:00:00,71.0,70.0,29.94,NNW,343,5.0,11.0,97,0.03,,,0.03,Meteo,2013-08-26 07:00:00,
2013-08-26 02:05:00,70.0,69.0,29.94,West,279,2.0,3.0,97,0.03,,,0.04,Meteo,2013-08-26 07:05:00,
2013-08-26 02:10:00,70.0,69.0,29.95,South,190,2.0,5.0,97,0.03,,,0.04,Meteo,2013-08-26 07:10:00,
2013-08-26 02:15:00,70.0,69.0,29.94,SW,223,1.0,2.0,98,0.03,,,0.04,Meteo,2013-08-26 07:15:00,
2013-08-26 02:20:00,70.0,69.0,29.96,SSW,202,1.0,2.0,97,0.04,,,0.05,Meteo,2013-08-26 07:20:00,
2013-08-26 02:25:00,70.0,69.0,29.92,South,190,1.0,1.0,98,0.04,,,0.05,Meteo,2013-08-26 07:25:00,
2013-08-26 02:30:00,70.0,69.0,29.91,West,281,0.0,2.0,97,0.03,,,0.05,Meteo,2013-08-26 07:30:00,
2013-08-26 02:35:00,70.0,69.0,29.89,NW,326,1.0,2.0,98,0.03,,,0.05,Meteo,2013-08-26 07:35:00,
2013-08-26 02:40:00,70.0,69.0,29.88,SSW,206,1.0,3.0,98,0.03,,,0.05,Meteo,2013-08-26 07:40:00,
2013-08-26 02:45:00,70.0,69.0,29.90,South,187,1.0,3.0,98,0.03,,,0.06,Meteo,2013-08-26 07:45:00,
2013-08-26 02:50:00,70.0,69.0,29.90,NE,44,0.0,2.0,98,0.03,,,0.06,Meteo,2013-08-26 07:50:00,
2013-08-26 02:55:00,70.0,69.0,29.89,SE,144,3.0,8.0,98,0.03,,,0.06,Meteo,2013-08-26 07:55:00,
2013-08-26 03:00:00,70.0,69.0,29.89,ESE,118,3.0,5.0,98,0.03,,,0.06,Meteo,2013-08-26 08:00:00,
2013-08-26 03:05:00,70.0,69.0,29.90,North,0,0.0,0.0,98,0.02,,,0.06,Meteo,2013-08-26 08:05:00,
2013-08-26 03:10:00,70.0,69.0,29.93,SE,124,1.0,3.0,98,0.02,,,0.06,Meteo,2013-08-26 08:10:00,
2013-08-26 03:15:00,70.0,69.0,29.91,SE,125,0.0,2.0,98,0.03,,,0.07,Meteo,2013-08-26 08:15:00,
2013-08-26 03:20:00,70.0,69.0,29.91,SE,131,1.0,3.0,98,0.02,,,0.07,Meteo,2013-08-26 08:20:00,
2013-08-26 03:25:00,70.0,69.0,29.91,SE,142,0.0,2.0,98,0.02,,,0.07,Meteo,2013-08-26 08:25:00,
2013-08-26 03:30:00,70.0,69.0,29.91,North,0,0.0,0.0,98,0.02,,,0.07,Meteo,2013-08-26 08:30:00,
2013-08-26 03:35:00,70.0,69.0,29.91,SE,141,1.0,2.0,98,0.02,,,0.07,Meteo,2013-08-26 08:35:00,
2013-08-26 03:40:00,70.0,69.0,29.92,SE,141,0.0,1.0,98,0.02,,,0.07,Meteo,2013-08-26 08:40:00,
2013-08-26 03:45:00,70.0,69.0,29.91,North,0,0.0,0.0,98,0.01,,,0.07,Meteo,2013-08-26 08:45:00,
2013-08-26 03:50:00,70.0,69.0,29.91,North,0,0.0,0.0,98,0.01,,,0.07,Meteo,2013-08-26 08:50:00,
2013-08-26 03:55:00,70.0,69.0,29.91,SE,141,1.0,1.0,98,0.01,,,0.07,Meteo,2013-08-26 08:55:00,
2013-08-26 04:00:00,70.0,69.0,29.90,East,96,2.0,3.0,98,0.01,,,0.07,Meteo,2013-08-26 09:00:00,
2013-08-26 04:05:00,70.0,69.0,29.91,North,0,0.0,0.0,98,0.02,,,0.08,Meteo,2013-08-26 09:05:00,
2013-08-26 04:10:00,70.0,69.0,29.91,North,0,0.0,0.0,98,0.02,,,0.08,Meteo,2013-08-26 09:10:00,
2013-08-26 04:15:00,70.0,69.0,29.90,ESE,114,0.0,1.0,98,0.01,,,0.08,Meteo,2013-08-26 09:15:00,
2013-08-26 04:21:00,70.0,69.0,29.90,North,0,0.0,0.0,98,0.01,,,0.08,Meteo,2013-08-26 09:21:00,
2013-08-26 04:26:00,70.0,69.0,29.90,North,0,0.0,0.0,98,0.01,,,0.08,Meteo,2013-08-26 09:26:00,
2013-08-26 04:31:00,70.0,69.0,29.89,North,0,0.0,0.0,98,0.01,,,0.08,Meteo,2013-08-26 09:31:00,
2013-08-26 04:36:00,70.0,69.0,29.90,North,0,0.0,0.0,98,0.01,,,0.08,Meteo,2013-08-26 09:36:00,
2013-08-26 04:41:00,70.0,69.0,29.90,North,0,0.0,0.0,98,0.01,,,0.08,Meteo,2013-08-26 09:41:00,
2013-08-26 04:46:00,70.0,69.0,29.91,North,0,0.0,0.0,98,0.01,,,0.08,Meteo,2013-08-26 09:46:00,
2013-08-26 04:51:00,70.0,69.0,29.91,North,0,0.0,0.0,98,0.01,,,0.08,Meteo,2013-08-26 09:51:00,
2013-08-26 04:56:00,70.0,69.0,29.92,North,0,0.0,0.0,98,0.01,,,0.08,Meteo,2013-08-26 09:56:00,
2013-08-26 05:01:00,70.0,69.0,29.92,North,0,0.0,0.0,98,0.00,,,0.08,Meteo,2013-08-26 10:01:00,
2013-08-26 05:06:00,69.0,68.0,29.93,ESE,114,0.0,1.0,98,0.00,,,0.08,Meteo,2013-08-26 10:06:00,
2013-08-26 05:11:00,69.0,68.0,29.93,North,0,0.0,0.0,98,0.00,,,0.08,Meteo,2013-08-26 10:11:00,
2013-08-26 05:16:00,69.0,69.0,29.93,North,0,0.0,0.0,99,0.01,,,0.09,Meteo,2013-08-26 10:16:00,
2013-08-26 05:21:00,70.0,69.0,29.94,North,0,0.0,0.0,98,0.01,,,0.09,Meteo,2013-08-26 10:21:00,
2013-08-26 05:26:00,70.0,70.0,29.93,WSW,244,0.0,1.0,99,0.01,,,0.09,Meteo,2013-08-26 10:26:00,
2013-08-26 05:31:00,70.0,69.0,29.93,North,0,0.0,0.0,98,0.01,,,0.09,Meteo,2013-08-26 10:31:00,
2013-08-26 05:36:00,70.0,69.0,29.93,North,0,0.0,0.0,98,0.01,,,0.09,Meteo,2013-08-26 10:36:00,
2013-08-26 05:41:00,70.0,70.0,29.93,North,0,0.0,0.0,99,0.01,,,0.09,Meteo,2013-08-26 10:41:00,
2013-08-26 05:46:00,70.0,69.0,29.92,WSW,244,0.0,1.0,98,0.01,,,0.09,Meteo,2013-08-26 10:46:00,
2013-08-26 05:51:00,70.0,69.0,29.92,North,0,0.0,0.0,98,0.01,,,0.09,Meteo,2013-08-26 10:51:00,
2013-08-26 05:56:00,70.0,69.0,29.92,North,0,0.0,0.0,98,0.01,,,0.09,Meteo,2013-08-26 10:56:00,
2013-08-26 06:01:00,70.0,69.0,29.91,North,0,0.0,0.0,98,0.01,,,0.09,Meteo,2013-08-26 11:01:00,
2013-08-26 06:06:00,70.0,69.0,29.91,North,0,0.0,0.0,98,0.01,,,0.09,Meteo,2013-08-26 11:06:00,
2013-08-26 06:11:00,70.0,69.0,29.91,North,0,0.0,0.0,98,0.01,,,0.09,Meteo,2013-08-26 11:11:00,
2013-08-26 06:16:00,70.0,70.0,29.92,North,0,0.0,0.0,99,0.00,,,0.09,Meteo,2013-08-26 11:16:00,
2013-08-26 06:21:00,70.0,69.0,29.92,North,0,0.0,0.0,98,0.00,,,0.09,Meteo,2013-08-26 11:21:00,
2013-08-26 06:26:00,70.0,69.0,29.92,North,0,0.0,0.0,98,0.00,,,0.09,Meteo,2013-08-26 11:26:00,
2013-08-26 06:31:00,70.0,69.0,29.92,North,0,0.0,0.0,98,0.00,,,0.09,Meteo,2013-08-26 11:31:00,
2013-08-26 06:36:00,70.0,70.0,29.93,North,0,0.0,0.0,99,0.00,,,0.09,Meteo,2013-08-26 11:36:00,
2013-08-26 06:42:00,70.0,69.0,29.93,North,0,0.0,0.0,98,0.00,,,0.09,Meteo,2013-08-26 11:42:00,
2013-08-26 06:47:00,70.0,69.0,29.93,North,0,0.0,0.0,98,0.00,,,0.09,Meteo,2013-08-26 11:47:00,
2013-08-26 06:52:00,70.0,69.0,29.93,North,0,0.0,0.0,98,0.00,,,0.09,Meteo,2013-08-26 11:52:00,
2013-08-26 06:57:00,70.0,69.0,29.93,North,0,0.0,0.0,98,0.00,,,0.09,Meteo,2013-08-26 11:57:00,
2013-08-26 07:02:00,70.0,69.0,29.93,North,0,0.0,0.0,98,0.00,,,0.09,Meteo,2013-08-26 12:02:00,
2013-08-26 07:07:00,71.0,70.0,29.93,North,0,0.0,0.0,98,0.01,,,0.10,Meteo,2013-08-26 12:07:00,
2013-08-26 07:12:00,71.0,71.0,29.93,North,0,0.0,0.0,99,0.01,,,0.10,Meteo,2013-08-26 12:12:00,
2013-08-26 07:17:00,71.0,70.0,29.92,North,0,0.0,0.0,98,0.01,,,0.10,Meteo,2013-08-26 12:17:00,
2013-08-26 07:22:00,71.0,70.0,29.92,North,0,0.0,0.0,98,0.01,,,0.10,Meteo,2013-08-26 12:22:00,
2013-08-26 07:28:00,71.0,70.0,29.92,North,0,0.0,0.0,98,0.01,,,0.10,Meteo,2013-08-26 12:28:00,
2013-08-26 07:33:00,71.0,71.0,29.93,North,0,0.0,0.0,99,0.01,,,0.10,Meteo,2013-08-26 12:33:00,
2013-08-26 07:38:00,71.0,71.0,29.92,North,0,0.0,0.0,99,0.01,,,0.10,Meteo,2013-08-26 12:38:00,
2013-08-26 07:43:00,71.0,70.0,29.93,South,190,0.0,2.0,98,0.01,,,0.10,Meteo,2013-08-26 12:43:00,
2013-08-26 07:48:00,72.0,71.0,29.93,North,0,0.0,0.0,98,0.01,,,0.10,Meteo,2013-08-26 12:48:00,
2013-08-26 07:53:00,72.0,71.0,29.94,North,0,0.0,0.0,98,0.01,,,0.10,Meteo,2013-08-26 12:53:00,
2013-08-26 07:58:00,72.0,71.0,29.94,SSE,149,0.0,2.0,98,0.01,,,0.10,Meteo,2013-08-26 12:58:00,
2013-08-26 08:03:00,73.0,73.0,29.94,SE,146,0.0,1.0,99,0.00,,,0.10,Meteo,2013-08-26 13:03:00,
2013-08-26 08:08:00,73.0,72.0,29.94,SE,146,0.0,1.0,98,0.00,,,0.10,Meteo,2013-08-26 13:08:00,
2013-08-26 08:13:00,73.0,72.0,29.94,SE,138,0.0,2.0,98,0.00,,,0.10,Meteo,2013-08-26 13:13:00,
2013-08-26 08:18:00,73.0,73.0,29.94,North,0,0.0,0.0,99,0.00,,,0.10,Meteo,2013-08-26 13:18:00,
2013-08-26 08:23:00,73.0,73.0,29.95,North,0,0.0,0.0,99,0.00,,,0.10,Meteo,2013-08-26 13:23:00,
2013-08-26 08:28:00,73.0,72.0,29.94,North,0,0.0,0.0,98,0.00,,,0.10,Meteo,2013-08-26 13:28:00,
2013-08-26 08:33:00,73.0,72.0,29.95,North,0,0.0,0.0,98,0.00,,,0.10,Meteo,2013-08-26 13:33:00,
2013-08-26 08:38:00,73.0,73.0,29.94,SE,131,0.0,1.0,99,0.00,,,0.10,Meteo,2013-08-26 13:38:00,
2013-08-26 08:43:00,73.0,73.0,29.94,North,0,0.0,0.0,99,0.00,,,0.10,Meteo,2013-08-26 13:43:00,
2013-08-26 08:48:00,74.0,74.0,29.94,North,0,0.0,0.0,99,0.01,,,0.11,Meteo,2013-08-26 13:48:00,
2013-08-26 08:53:00,74.0,74.0,29.94,North,0,0.0,0.0,99,0.01,,,0.11,Meteo,2013-08-26 13:53:00,
2013-08-26 08:58:00,74.0,74.0,29.94,North,0,0.0,0.0,99,0.01,,,0.11,Meteo,2013-08-26 13:58:00,
2013-08-26 09:03:00,74.0,74.0,29.94,SE,145,0.0,2.0,99,0.01,,,0.11,Meteo,2013-08-26 14:03:00,
2013-08-26 09:08:00,74.0,73.0,29.94,SE,145,0.0,1.0,98,0.01,,,0.11,Meteo,2013-08-26 14:08:00,
2013-08-26 09:13:00,74.0,74.0,29.95,ESE,112,1.0,3.0,99,0.01,,,0.11,Meteo,2013-08-26 14:13:00,
2013-08-26 09:18:00,74.0,73.0,29.94,ESE,117,0.0,1.0,98,0.01,,,0.11,Meteo,2013-08-26 14:18:00,
2013-08-26 09:23:00,74.0,73.0,29.94,ESE,121,0.0,1.0,98,0.01,,,0.11,Meteo,2013-08-26 14:23:00,
2013-08-26 09:28:00,74.0,74.0,29.94,SE,140,0.0,2.0,99,0.01,,,0.11,Meteo,2013-08-26 14:28:00,
2013-08-26 09:33:00,74.0,74.0,29.95,SE,146,2.0,4.0,99,0.01,,,0.11,Meteo,2013-08-26 14:33:00,
2013-08-26 09:38:00,74.0,73.0,29.94,North,0,0.0,0.0,98,0.01,,,0.11,Meteo,2013-08-26 14:38:00,
2013-08-26 09:43:00,74.0,74.0,29.94,SSE,161,0.0,1.0,99,0.01,,,0.11,Meteo,2013-08-26 14:43:00,
2013-08-26 09:48:00,74.0,74.0,29.94,North,0,0.0,0.0,99,0.00,,,0.11,Meteo,2013-08-26 14:48:00,
2013-08-26 09:53:00,74.0,73.0,29.94,North,0,0.0,0.0,98,0.00,,,0.11,Meteo,2013-08-26 14:53:00,
2013-08-26 09:58:00,74.0,73.0,29.94,North,0,0.0,0.0,98,0.00,,,0.11,Meteo,2013-08-26 14:58:00,
2013-08-26 10:03:00,75.0,75.0,29.94,North,0,0.0,0.0,99,0.00,,,0.11,Meteo,2013-08-26 15:03:00,
2013-08-26 10:08:00,75.0,74.0,29.94,South,181,0.0,3.0,98,0.00,,,0.11,Meteo,2013-08-26 15:08:00,
2013-08-26 10:13:00,75.0,75.0,29.94,North,0,0.0,0.0,99,0.00,,,0.11,Meteo,2013-08-26 15:13:00,
2013-08-26 10:18:00,76.0,76.0,29.94,North,0,0.0,0.0,99,0.00,,,0.11,Meteo,2013-08-26 15:18:00,
2013-08-26 10:23:00,76.0,76.0,29.94,South,184,0.0,1.0,99,0.00,,,0.11,Meteo,2013-08-26 15:23:00,
2013-08-26 10:28:00,77.0,77.0,29.94,South,172,0.0,1.0,99,0.00,,,0.11,Meteo,2013-08-26 15:28:00,
2013-08-26 10:33:00,77.0,77.0,29.94,SW,233,1.0,2.0,99,0.00,,,0.11,Meteo,2013-08-26 15:33:00,
2013-08-26 10:38:00,78.0,78.0,29.94,SE,144,1.0,2.0,99,0.00,,,0.11,Meteo,2013-08-26 15:38:00,
2013-08-26 10:43:00,79.0,79.0,29.95,North,0,0.0,0.0,99,0.00,,,0.11,Meteo,2013-08-26 15:43:00,
2013-08-26 10:48:00,79.0,79.0,29.94,WSW,252,1.0,3.0,99,0.00,,,0.11,Meteo,2013-08-26 15:48:00,
2013-08-26 10:53:00,80.0,80.0,29.94,ESE,115,1.0,2.0,99,0.00,,,0.11,Meteo,2013-08-26 15:53:00,
2013-08-26 10:58:00,80.0,80.0,29.94,SE,144,0.0,2.0,99,0.01,,,0.12,Meteo,2013-08-26 15:58:00,
2013-08-26 11:03:00,81.0,81.0,29.94,SW,233,0.0,1.0,99,0.01,,,0.12,Meteo,2013-08-26 16:03:00,
2013-08-26 11:08:00,81.0,81.0,29.94,WSW,250,0.0,1.0,99,0.01,,,0.12,Meteo,2013-08-26 16:08:00,
2013-08-26 11:13:00,82.0,82.0,29.94,ESE,103,2.0,4.0,99,0.01,,,0.12,Meteo,2013-08-26 16:13:00,
2013-08-26 11:18:00,82.0,81.0,29.94,SSE,161,0.0,2.0,98,0.01,,,0.12,Meteo,2013-08-26 16:18:00,
2013-08-26 11:23:00,83.0,82.0,29.94,SW,228,0.0,1.0,98,0.01,,,0.12,Meteo,2013-08-26 16:23:00,
2013-08-26 11:28:00,83.0,82.0,29.94,SSW,209,0.0,1.0,97,0.01,,,0.12,Meteo,2013-08-26 16:28:00,
2013-08-26 11:33:00,83.0,82.0,29.94,South,183,0.0,1.0,97,0.01,,,0.12,Meteo,2013-08-26 16:33:00,
2013-08-26 11:38:00,83.0,82.0,29.94,WNW,286,1.0,2.0,96,0.01,,,0.12,Meteo,2013-08-26 16:38:00,
2013-08-26 11:43:00,83.0,82.0,29.94,East,90,1.0,2.0,97,0.01,,,0.12,Meteo,2013-08-26 16:43:00,
2013-08-26 11:48:00,84.0,83.0,29.94,WNW,292,0.0,1.0,96,0.01,,,0.12,Meteo,2013-08-26 16:48:00,
2013-08-26 11:53:00,84.0,82.0,29.94,WSW,237,1.0,2.0,95,0.01,,,0.12,Meteo,2013-08-26 16:53:00,
2013-08-26 11:58:00,83.0,81.0,29.94,NNW,333,3.0,4.0,95,0.00,,,0.12,Meteo,2013-08-26 16:58:00,
2013-08-26 12:03:00,83.0,81.0,29.94,WSW,251,0.0,2.0,95,0.00,,,0.12,Meteo,2013-08-26 17:03:00,
2013-08-26 12:08:00,83.0,81.0,29.93,NNW,342,2.0,4.0,95,0.00,,,0.12,Meteo,2013-08-26 17:08:00,
2013-08-26 12:13:00,83.0,81.0,29.93,North,359,0.0,1.0,95,0.00,,,0.12,Meteo,2013-08-26 17:13:00,
2013-08-26 12:18:00,83.0,81.0,29.93,North,0,0.0,1.0,95,0.00,,,0.12,Meteo,2013-08-26 17:18:00,
2013-08-26 12:23:00,83.0,81.0,29.93,NW,323,1.0,3.0,94,0.00,,,0.12,Meteo,2013-08-26 17:23:00,
2013-08-26 12:28:00,84.0,81.0,29.93,North,0,1.0,2.0,91,0.00,,,0.12,Meteo,2013-08-26 17:28:00,
2013-08-26 12:33:00,84.0,80.0,29.92,ENE,76,2.0,4.0,87,0.00,,,0.12,Meteo,2013-08-26 17:33:00,
2013-08-26 12:38:00,84.0,78.0,29.92,NNW,327,2.0,4.0,82,0.00,,,0.12,Meteo,2013-08-26 17:38:00,
2013-08-26 12:43:00,84.0,78.0,29.93,NE,51,2.0,3.0,82,0.00,,,0.12,Meteo,2013-08-26 17:43:00,
2013-08-26 12:48:00,85.0,79.0,29.93,NE,54,2.0,3.0,81,0.00,,,0.12,Meteo,2013-08-26 17:48:00,
2013-08-26 12:53:00,85.0,77.0,29.93,NNW,342,1.0,4.0,78,0.00,,,0.12,Meteo,2013-08-26 17:53:00,
2013-08-26 12:58:00,85.0,78.0,29.93,NE,49,2.0,2.0,79,0.00,,,0.12,Meteo,2013-08-26 17:58:00,
2013-08-26 13:03:00,85.0,77.0,29.92,NNW,335,1.0,3.0,78,0.00,,,0.12,Meteo,2013-08-26 18:03:00,
2013-08-26 13:08:00,84.0,77.0,29.93,NNW,330,1.0,4.0,79,0.00,,,0.12,Meteo,2013-08-26 18:08:00,
2013-08-26 13:13:00,84.0,76.0,29.92,North,0,1.0,2.0,78,0.00,,,0.12,Meteo,2013-08-26 18:13:00,
2013-08-26 13:18:00,84.0,77.0,29.92,ENE,74,3.0,5.0,80,0.00,,,0.12,Meteo,2013-08-26 18:18:00,
2013-08-26 13:23:00,85.0,77.0,29.92,NNE,29,2.0,3.0,78,0.00,,,0.12,Meteo,2013-08-26 18:23:00,
2013-08-26 13:29:00,85.0,77.0,29.92,NNW,339,1.0,2.0,76,0.00,,,0.12,Meteo,2013-08-26 18:29:00,
2013-08-26 13:34:00,86.0,78.0,29.92,NNW,341,2.0,4.0,77,0.01,,,0.13,Meteo,2013-08-26 18:34:00,
2013-08-26 13:39:00,86.0,78.0,29.92,NNW,344,3.0,4.0,76,0.01,,,0.13,Meteo,2013-08-26 18:39:00,
2013-08-26 13:44:00,86.0,78.0,29.92,NNW,344,1.0,2.0,77,0.01,,,0.13,Meteo,2013-08-26 18:44:00,
2013-08-26 13:49:00,87.0,78.0,29.92,North,355,1.0,3.0,75,0.01,,,0.13,Meteo,2013-08-26 18:49:00,
2013-08-26 13:54:00,87.0,78.0,29.92,NE,52,2.0,4.0,74,0.01,,,0.13,Meteo,2013-08-26 18:54:00,
2013-08-26 13:59:00,87.0,78.0,29.92,North,357,1.0,2.0,75,0.01,,,0.13,Meteo,2013-08-26 18:59:00,
2013-08-26 14:04:00,88.0,79.0,29.92,NNE,14,1.0,3.0,74,0.01,,,0.13,Meteo,2013-08-26 19:04:00,
2013-08-26 14:09:00,88.0,78.0,29.92,North,0,1.0,2.0,72,0.01,,,0.13,Meteo,2013-08-26 19:09:00,
2013-08-26 14:14:00,87.0,77.0,29.92,NNW,329,1.0,2.0,72,0.01,,,0.13,Meteo,2013-08-26 19:14:00,
2013-08-26 14:19:00,87.0,77.0,29.91,North,350,1.0,3.0,72,0.01,,,0.13,Meteo,2013-08-26 19:19:00,
2013-08-26 14:24:00,86.0,76.0,29.91,North,353,2.0,3.0,71,0.01,,,0.13,Meteo,2013-08-26 19:24:00,
2013-08-26 14:29:00,85.0,76.0,29.91,NNW,339,3.0,6.0,74,0.01,,,0.13,Meteo,2013-08-26 19:29:00,
2013-08-26 14:34:00,84.0,74.0,29.91,NNW,340,1.0,2.0,73,0.00,,,0.13,Meteo,2013-08-26 19:34:00,
2013-08-26 14:39:00,83.0,74.0,29.91,North,0,2.0,2.0,75,0.00,,,0.13,Meteo,2013-08-26 19:39:00,
2013-08-26 14:44:00,83.0,75.0,29.91,NNE,32,1.0,1.0,76,0.00,,,0.13,Meteo,2013-08-26 19:44:00,
2013-08-26 14:49:00,84.0,75.0,29.91,NNW,336,2.0,4.0,75,0.00,,,0.13,Meteo,2013-08-26 19:49:00,
2013-08-26 14:54:00,84.0,75.0,29.91,NE,50,2.0,4.0,75,0.00,,,0.13,Meteo,2013-08-26 19:54:00,
2013-08-26 14:59:00,85.0,76.0,29.90,East,86,1.0,2.0,74,0.00,,,0.13,Meteo,2013-08-26 19:59:00,
2013-08-26 15:04:00,85.0,76.0,29.91,East,98,0.0,1.0,75,0.00,,,0.13,Meteo,2013-08-26 20:04:00,
2013-08-26 15:09:00,86.0,77.0,29.90,ENE,61,1.0,4.0,75,0.00,,,0.13,Meteo,2013-08-26 20:09:00,
2013-08-26 15:14:00,86.0,76.0,29.91,NW,319,2.0,4.0,71,0.00,,,0.13,Meteo,2013-08-26 20:14:00,
2013-08-26 15:19:00,86.0,76.0,29.90,NNW,330,1.0,2.0,73,0.00,,,0.13,Meteo,2013-08-26 20:19:00,
2013-08-26 15:24:00,86.0,76.0,29.90,North,359,1.0,2.0,73,0.00,,,0.13,Meteo,2013-08-26 20:24:00,
2013-08-26 15:29:00,86.0,76.0,29.90,NNW,332,0.0,1.0,71,0.00,,,0.13,Meteo,2013-08-26 20:29:00,
2013-08-26 15:34:00,87.0,78.0,29.90,ENE,63,1.0,2.0,74,0.00,,,0.13,Meteo,2013-08-26 20:34:00,
2013-08-26 15:39:00,88.0,77.0,29.90,NE,55,0.0,1.0,71,0.00,,,0.13,Meteo,2013-08-26 20:39:00,
2013-08-26 15:44:00,88.0,77.0,29.90,NW,318,1.0,1.0,71,0.00,,,0.13,Meteo,2013-08-26 20:44:00,
2013-08-26 15:49:00,87.0,75.0,29.90,NNW,329,2.0,3.0,68,0.00,,,0.13,Meteo,2013-08-26 20:49:00,
2013-08-26 15:54:00,87.0,76.0,29.90,NNW,334,2.0,2.0,69,0.00,,,0.13,Meteo,2013-08-26 20:54:00,
2013-08-26 15:59:00,87.0,76.0,29.90,North,359,1.0,2.0,70,0.00,,,0.13,Meteo,2013-08-26 20:59:00,
2013-08-26 16:04:00,86.0,75.0,29.90,NNW,334,1.0,4.0,70,0.00,,,0.13,Meteo,2013-08-26 21:04:00,
2013-08-26 16:09:00,86.0,75.0,29.90,NNW,335,2.0,4.0,70,0.00,,,0.13,Meteo,2013-08-26 21:09:00,
2013-08-26 16:14:00,86.0,75.0,29.90,NNW,337,2.0,4.0,70,0.00,,,0.13,Meteo,2013-08-26 21:14:00,
2013-08-26 16:19:00,86.0,75.0,29.90,NE,42,1.0,3.0,70,0.00,,,0.13,Meteo,2013-08-26 21:19:00,
2013-08-26 16:25:00,87.0,76.0,29.90,NNE,25,1.0,1.0,70,0.00,,,0.13,Meteo,2013-08-26 21:25:00,
2013-08-26 16:30:00,87.0,76.0,29.90,North,0,0.0,0.0,70,0.00,,,0.13,Meteo,2013-08-26 21:30:00,
2013-08-26 16:35:00,87.0,76.0,29.90,North,0,0.0,0.0,70,0.00,,,0.13,Meteo,2013-08-26 21:35:00,
2013-08-26 16:40:00,86.0,76.0,29.90,NNW,348,1.0,3.0,71,0.00,,,0.13,Meteo,2013-08-26 21:40:00,
2013-08-26 16:45:00,86.0,76.0,29.90,North,351,0.0,1.0,72,0.00,,,0.13,Meteo,2013-08-26 21:45:00,
2013-08-26 16:50:00,86.0,76.0,29.90,NNW,338,1.0,2.0,71,0.00,,,0.13,Meteo,2013-08-26 21:50:00,
2013-08-26 16:55:00,86.0,76.0,29.90,NNW,338,0.0,2.0,72,0.00,,,0.13,Meteo,2013-08-26 21:55:00,
2013-08-26 17:00:00,86.0,76.0,29.90,NW,319,2.0,3.0,72,0.00,,,0.13,Meteo,2013-08-26 22:00:00,
2013-08-26 17:05:00,85.0,75.0,29.90,North,350,1.0,3.0,72,0.00,,,0.13,Meteo,2013-08-26 22:05:00,
2013-08-26 17:10:00,84.0,75.0,29.90,NNW,338,2.0,4.0,74,0.00,,,0.13,Meteo,2013-08-26 22:10:00,
2013-08-26 17:15:00,84.0,75.0,29.90,NNW,335,1.0,2.0,75,0.00,,,0.13,Meteo,2013-08-26 22:15:00,
2013-08-26 17:20:00,83.0,75.0,29.90,NNW,347,1.0,2.0,76,0.00,,,0.13,Meteo,2013-08-26 22:20:00,
2013-08-26 17:25:00,83.0,75.0,29.89,North,9,1.0,2.0,76,0.00,,,0.13,Meteo,2013-08-26 22:25:00,
2013-08-26 17:30:00,83.0,75.0,29.89,NE,55,0.0,1.0,77,0.00,,,0.13,Meteo,2013-08-26 22:30:00,
2013-08-26 17:35:00,82.0,74.0,29.88,North,0,0.0,0.0,77,0.00,,,0.13,Meteo,2013-08-26 22:35:00,
2013-08-26 17:40:00,82.0,74.0,29.88,North,0,0.0,0.0,78,0.00,,,0.13,Meteo,2013-08-26 22:40:00,
2013-08-26 17:45:00,82.0,75.0,29.87,North,351,0.0,2.0,79,0.00,,,0.13,Meteo,2013-08-26 22:45:00,
2013-08-26 17:51:00,82.0,75.0,29.86,North,0,0.0,0.0,79,0.00,,,0.13,Meteo,2013-08-26 22:51:00,
2013-08-26 17:56:00,82.0,75.0,29.87,North,0,0.0,0.0,79,0.00,,,0.13,Meteo,2013-08-26 22:56:00,
2013-08-26 18:01:00,82.0,75.0,29.87,North,351,0.0,1.0,79,0.00,,,0.13,Meteo,2013-08-26 23:01:00,
2013-08-26 18:06:00,82.0,75.0,29.87,North,349,0.0,1.0,79,0.00,,,0.13,Meteo,2013-08-26 23:06:00,
2013-08-26 18:11:00,82.0,74.0,29.88,NW,312,2.0,4.0,78,0.00,,,0.13,Meteo,2013-08-26 23:11:00,
2013-08-26 18:16:00,81.0,74.0,29.88,NW,326,0.0,1.0,79,0.01,,,0.14,Meteo,2013-08-26 23:16:00,
2013-08-26 18:21:00,80.0,73.0,29.88,North,0,0.0,0.0,80,0.01,,,0.14,Meteo,2013-08-26 23:21:00,
2013-08-26 18:26:00,80.0,74.0,29.88,NW,326,0.0,1.0,81,0.01,,,0.14,Meteo,2013-08-26 23:26:00,
2013-08-26 18:33:00,79.0,73.0,29.87,NW,326,0.0,1.0,82,0.01,,,0.14,Meteo,2013-08-26 23:33:00,
2013-08-26 18:39:00,78.0,72.0,29.86,WNW,291,0.0,1.0,83,0.01,,,0.14,Meteo,2013-08-26 23:39:00,
2013-08-26 18:44:00,78.0,73.0,29.87,North,0,0.0,0.0,85,0.01,,,0.14,Meteo,2013-08-26 23:44:00,
2013-08-26 18:49:00,78.0,73.0,29.87,North,0,0.0,0.0,86,0.01,,,0.14,Meteo,2013-08-26 23:49:00,
2013-08-26 18:54:00,78.0,73.0,29.87,WNW,291,0.0,1.0,85,0.01,,,0.14,Meteo,2013-08-26 23:54:00,
2013-08-26 18:59:00,78.0,73.0,29.88,NW,311,2.0,5.0,85,0.01,,,0.14,Meteo,2013-08-26 23:59:00,
2013-08-26 19:04:00,77.0,72.0,29.89,NNW,331,2.0,4.0,86,0.01,,,0.00,Meteo,2013-08-27 00:04:00,
2013-08-26 19:09:00,76.0,72.0,29.89,NNW,334,3.0,4.0,86,0.01,,,0.00,Meteo,2013-08-27 00:09:00,
2013-08-26 19:14:00,76.0,72.0,29.90,NNW,337,1.0,3.0,88,0.00,,,0.00,Meteo,2013-08-27 00:14:00,
2013-08-26 19:19:00,75.0,72.0,29.89,NNW,341,0.0,2.0,89,0.00,,,0.00,Meteo,2013-08-27 00:19:00,
2013-08-26 19:24:00,75.0,72.0,29.89,NNW,341,0.0,1.0,90,0.00,,,0.00,Meteo,2013-08-27 00:24:00,
2013-08-26 19:29:00,75.0,72.0,29.89,NNW,342,0.0,2.0,91,0.00,,,0.00,Meteo,2013-08-27 00:29:00,
2013-08-26 19:34:00,75.0,73.0,29.89,NNW,338,0.0,1.0,92,0.00,,,0.00,Meteo,2013-08-27 00:34:00,
2013-08-26 19:39:00,75.0,73.0,29.88,NNW,345,0.0,1.0,92,0.00,,,0.00,Meteo,2013-08-27 00:39:00,
2013-08-26 19:44:00,75.0,73.0,29.88,East,99,1.0,5.0,93,0.00,,,0.00,Meteo,2013-08-27 00:44:00,
2013-08-26 19:49:00,75.0,73.0,29.88,East,92,1.0,2.0,93,0.00,,,0.00,Meteo,2013-08-27 00:49:00,
2013-08-26 19:54:00,75.0,73.0,29.88,North,0,0.0,0.0,93,0.00,,,0.00,Meteo,2013-08-27 00:54:00,
2013-08-26 19:59:00,75.0,73.0,29.88,North,0,0.0,0.0,94,0.00,,,0.00,Meteo,2013-08-27 00:59:00,
2013-08-26 20:04:00,75.0,73.0,29.88,North,0,0.0,0.0,94,0.00,,,0.00,Meteo,2013-08-27 01:04:00,
2013-08-26 20:09:00,75.0,73.0,29.88,East,92,0.0,1.0,94,0.00,,,0.00,Meteo,2013-08-27 01:09:00,
2013-08-26 20:14:00,75.0,73.0,29.88,East,92,1.0,2.0,95,0.00,,,0.00,Meteo,2013-08-27 01:14:00,
2013-08-26 20:19:00,75.0,73.0,29.89,East,92,0.0,1.0,95,0.00,,,0.00,Meteo,2013-08-27 01:19:00,
2013-08-26 20:24:00,75.0,73.0,29.90,NNW,339,1.0,2.0,95,0.00,,,0.00,Meteo,2013-08-27 01:24:00,
2013-08-26 20:29:00,74.0,72.0,29.91,NW,321,1.0,4.0,95,0.00,,,0.00,Meteo,2013-08-27 01:29:00,
2013-08-26 20:34:00,74.0,72.0,29.91,NNW,347,2.0,4.0,95,0.00,,,0.00,Meteo,2013-08-27 01:34:00,
2013-08-26 20:39:00,74.0,72.0,29.91,NNW,344,2.0,4.0,95,0.00,,,0.00,Meteo,2013-08-27 01:39:00,
2013-08-26 20:44:00,73.0,71.0,29.93,North,349,3.0,7.0,95,0.00,,,0.00,Meteo,2013-08-27 01:44:00,
2013-08-26 20:49:00,73.0,71.0,29.92,North,358,1.0,3.0,95,0.00,,,0.00,Meteo,2013-08-27 01:49:00,
2013-08-26 20:55:00,73.0,72.0,29.91,East,81,1.0,2.0,96,0.00,,,0.00,Meteo,2013-08-27 01:55:00,
2013-08-26 21:00:00,73.0,72.0,29.90,ENE,75,1.0,3.0,96,0.00,,,0.00,Meteo,2013-08-27 02:00:00,
2013-08-26 21:05:00,73.0,72.0,29.89,East,95,0.0,2.0,96,0.00,,,0.00,Meteo,2013-08-27 02:05:00,
2013-08-26 21:10:00,73.0,72.0,29.89,NW,326,0.0,2.0,96,0.00,,,0.00,Meteo,2013-08-27 02:10:00,
2013-08-26 21:15:00,73.0,72.0,29.90,East,92,0.0,2.0,96,0.00,,,0.00,Meteo,2013-08-27 02:15:00,
2013-08-26 21:20:00,73.0,72.0,29.90,ENE,70,1.0,2.0,96,0.00,,,0.00,Meteo,2013-08-27 02:20:00,
2013-08-26 21:25:00,73.0,72.0,29.91,NNW,330,0.0,1.0,96,0.00,,,0.00,Meteo,2013-08-27 02:25:00,
2013-08-26 21:30:00,73.0,72.0,29.91,East,84,1.0,2.0,96,0.00,,,0.00,Meteo,2013-08-27 02:30:00,
2013-08-26 21:35:00,73.0,72.0,29.90,East,82,2.0,3.0,96,0.00,,,0.00,Meteo,2013-08-27 02:35:00,
2013-08-26 21:40:00,73.0,72.0,29.89,East,92,2.0,3.0,96,0.00,,,0.00,Meteo,2013-08-27 02:40:00,
2013-08-26 21:45:00,73.0,72.0,29.89,East,91,1.0,2.0,97,0.00,,,0.00,Meteo,2013-08-27 02:45:00,
2013-08-26 21:50:00,73.0,72.0,29.90,ESE,102,0.0,2.0,97,0.00,,,0.00,Meteo,2013-08-27 02:50:00,
2013-08-26 21:56:00,73.0,72.0,29.90,SSE,157,0.0,1.0,97,0.00,,,0.00,Meteo,2013-08-27 02:56:00,
2013-08-26 22:01:00,73.0,72.0,29.89,SSE,153,1.0,3.0,97,0.00,,,0.00,Meteo,2013-08-27 03:01:00,
2013-08-26 22:06:00,73.0,72.0,29.89,North,0,0.0,0.0,97,0.00,,,0.00,Meteo,2013-08-27 03:06:00,
2013-08-26 22:11:00,73.0,72.0,29.89,North,0,0.0,0.0,97,0.00,,,0.00,Meteo,2013-08-27 03:11:00,
2013-08-26 22:16:00,73.0,72.0,29.88,SSE,159,1.0,4.0,97,0.00,,,0.00,Meteo,2013-08-27 03:16:00,
2013-08-26 22:21:00,73.0,72.0,29.86,SSE,148,2.0,4.0,97,0.00,,,0.00,Meteo,2013-08-27 03:21:00,
2013-08-26 22:26:00,73.0,72.0,29.86,SSE,156,1.0,4.0,97,0.00,,,0.00,Meteo,2013-08-27 03:26:00,
2013-08-26 22:32:00,73.0,72.0,29.85,ESE,102,1.0,2.0,97,0.00,,,0.00,Meteo,2013-08-27 03:32:00,
2013-08-26 22:37:00,73.0,72.0,29.84,North,0,0.0,0.0,97,0.00,,,0.00,Meteo,2013-08-27 03:37:00,
2013-08-26 22:42:00,72.0,71.0,29.85,East,101,0.0,1.0,97,0.00,,,0.00,Meteo,2013-08-27 03:42:00,
2013-08-26 22:47:00,72.0,71.0,29.86,North,0,0.0,0.0,97,0.00,,,0.00,Meteo,2013-08-27 03:47:00,
2013-08-26 22:52:00,72.0,71.0,29.86,SSE,166,0.0,1.0,97,0.00,,,0.00,Meteo,2013-08-27 03:52:00,
2013-08-26 22:57:00,72.0,71.0,29.87,WSW,255,0.0,1.0,97,0.00,,,0.00,Meteo,2013-08-27 03:57:00,
2013-08-26 23:01:00,72.0,71.0,29.86,North,0,0.0,0.0,97,0.00,,,0.00,Meteo,2013-08-27 04:01:00,
2013-08-26 23:02:00,72.0,71.0,29.86,SE,131,0.0,1.0,97,0.00,,,0.00,Meteo,2013-08-27 04:02:00,
2013-08-26 23:05:00,72.0,71.0,29.86,North,0,0.0,0.0,97,0.00,,,0.00,Meteo,2013-08-27 04:05:00,
2013-08-26 23:09:00,72.0,71.0,29.85,North,0,0.0,0.0,97,0.00,,,0.00,Meteo,2013-08-27 04:09:00,
2013-08-26 23:14:00,73.0,72.0,29.85,North,0,0.0,0.0,97,0.00,,,0.00,Meteo,2013-08-27 04:14:00,
2013-08-26 23:20:00,73.0,72.0,29.86,North,0,0.0,0.0,97,0.00,,,0.00,Meteo,2013-08-27 04:20:00,
2013-08-26 23:25:00,73.0,72.0,29.85,North,0,0.0,0.0,97,0.00,,,0.00,Meteo,2013-08-27 04:25:00,
2013-08-26 23:30:00,73.0,72.0,29.85,North,0,0.0,0.0,98,0.00,,,0.00,Meteo,2013-08-27 04:30:00,
2013-08-26 23:35:00,73.0,72.0,29.85,North,0,0.0,0.0,97,0.00,,,0.00,Meteo,2013-08-27 04:35:00,
2013-08-26 23:40:00,73.0,72.0,29.85,North,0,0.0,0.0,97,0.00,,,0.00,Meteo,2013-08-27 04:40:00,
2013-08-26 23:45:00,73.0,72.0,29.85,North,0,0.0,0.0,98,0.00,,,0.00,Meteo,2013-08-27 04:45:00,
2013-08-26 23:50:00,73.0,72.0,29.85,North,358,0.0,1.0,97,0.00,,,0.00,Meteo,2013-08-27 04:50:00,
2013-08-26 23:55:00,73.0,72.0,29.85,WNW,302,0.0,1.0,97,0.00,,,0.00,Meteo,2013-08-27 04:55:00,